DLH582 EDDF-HECA
Flight info
| Callsign | DLH582 |
|---|---|
| Flight time | 3h 35m |
| Altitude | 37000 |
| Route | CINDY8S/18 CINDY Z74 LAMPU DCT NOMBO Y161 MAH DCT VAVOR DCT RADIZ/N0430F390 DCT GORPA DCT EVTON DCT SOLGU DCT AKIKA DCT MAVAR DCT BITLA DCT KPC UN139 KUMBI L612 BLT A16 CVO |
| Aircraft | A20N/M-SDE2E3FGIJ1LORWXYZ/HB1 |
Departure
| Time | 2026-05-04 18:07 |
|---|---|
| Airport | Frankfurt Main Airport (EDDF) |
Arrival
| Time | 2026-05-04 21:43 |
|---|---|
| Airport | Cairo International Airport (HECA) |
| Time | Latitude | Longitude | Altitude | Speed | Heading |
|---|---|---|---|---|---|
| 2026-05-04 17:05 | 50.04877 | 8.59048 | 338 ft | 0 kts | 339° |
| 2026-05-04 17:43 | 50.04863 | 8.59056 | 367 ft | 2 kts | 340° |
| 2026-05-04 17:43 | 50.04848 | 8.59066 | 367 ft | 2 kts | 339° |
| 2026-05-04 17:43 | 50.04832 | 8.59075 | 370 ft | 2 kts | 339° |
| 2026-05-04 17:43 | 50.04817 | 8.59084 | 368 ft | 2 kts | 340° |
| 2026-05-04 17:44 | 50.04801 | 8.59092 | 372 ft | 2 kts | 341° |
| 2026-05-04 17:44 | 50.04800 | 8.59093 | 371 ft | 0 kts | 340° |
| 2026-05-04 17:47 | 50.04801 | 8.59092 | 372 ft | 1 kts | 340° |
| 2026-05-04 17:48 | 50.04809 | 8.59100 | 368 ft | 1 kts | 50° |
| 2026-05-04 17:48 | 50.04812 | 8.59119 | 368 ft | 4 kts | 71° |
| 2026-05-04 17:48 | 50.04825 | 8.59180 | 369 ft | 8 kts | 72° |
| 2026-05-04 17:48 | 50.04837 | 8.59233 | 371 ft | 1 kts | 70° |
| 2026-05-04 17:49 | 50.04844 | 8.59263 | 368 ft | 5 kts | 71° |
| 2026-05-04 17:49 | 50.04860 | 8.59339 | 370 ft | 9 kts | 71° |
| 2026-05-04 17:49 | 50.04865 | 8.59362 | 370 ft | 1 kts | 75° |
| 2026-05-04 17:49 | 50.04867 | 8.59395 | 368 ft | 4 kts | 90° |
| 2026-05-04 17:50 | 50.04865 | 8.59432 | 369 ft | 0 kts | 99° |
| 2026-05-04 17:50 | 50.04862 | 8.59445 | 369 ft | 2 kts | 111° |
| 2026-05-04 17:50 | 50.04848 | 8.59479 | 371 ft | 5 kts | 124° |
| 2026-05-04 17:50 | 50.04812 | 8.59531 | 370 ft | 9 kts | 140° |
| 2026-05-04 17:51 | 50.04756 | 8.59585 | 373 ft | 10 kts | 157° |
| 2026-05-04 17:51 | 50.04686 | 8.59613 | 374 ft | 12 kts | 173° |
| 2026-05-04 17:51 | 50.04596 | 8.59623 | 375 ft | 14 kts | 178° |
| 2026-05-04 17:51 | 50.04491 | 8.59629 | 375 ft | 16 kts | 178° |
| 2026-05-04 17:52 | 50.04367 | 8.59636 | 376 ft | 19 kts | 178° |
| 2026-05-04 17:52 | 50.04302 | 8.59640 | 376 ft | 1 kts | 178° |
| 2026-05-04 17:52 | 50.04275 | 8.59642 | 375 ft | 6 kts | 178° |
| 2026-05-04 17:52 | 50.04212 | 8.59634 | 375 ft | 12 kts | 188° |
| 2026-05-04 17:53 | 50.04121 | 8.59588 | 374 ft | 15 kts | 204° |
| 2026-05-04 17:53 | 50.04011 | 8.59516 | 374 ft | 19 kts | 207° |
| 2026-05-04 17:53 | 50.03900 | 8.59364 | 369 ft | 24 kts | 236° |
| 2026-05-04 17:53 | 50.03842 | 8.59172 | 366 ft | 17 kts | 250° |
| 2026-05-04 17:54 | 50.03826 | 8.59098 | 367 ft | 1 kts | 251° |
| 2026-05-04 17:54 | 50.03825 | 8.59097 | 367 ft | 0 kts | 251° |
| 2026-05-04 17:55 | 50.03817 | 8.59060 | 368 ft | 7 kts | 251° |
| 2026-05-04 17:55 | 50.03797 | 8.58970 | 366 ft | 11 kts | 248° |
| 2026-05-04 17:55 | 50.03763 | 8.58833 | 365 ft | 16 kts | 250° |
| 2026-05-04 17:56 | 50.03721 | 8.58647 | 364 ft | 20 kts | 250° |
| 2026-05-04 17:56 | 50.03670 | 8.58436 | 362 ft | 22 kts | 251° |
| 2026-05-04 17:56 | 50.03613 | 8.58209 | 361 ft | 23 kts | 249° |
| 2026-05-04 17:56 | 50.03558 | 8.57972 | 359 ft | 24 kts | 251° |
| 2026-05-04 17:57 | 50.03495 | 8.57719 | 360 ft | 26 kts | 249° |
| 2026-05-04 17:57 | 50.03430 | 8.57449 | 362 ft | 28 kts | 250° |
| 2026-05-04 17:57 | 50.03366 | 8.57155 | 353 ft | 29 kts | 251° |
| 2026-05-04 17:57 | 50.03303 | 8.56915 | 358 ft | 17 kts | 251° |
| 2026-05-04 17:58 | 50.03300 | 8.56900 | 355 ft | 0 kts | 253° |
| 2026-05-04 17:58 | 50.03300 | 8.56899 | 355 ft | 0 kts | 253° |
| 2026-05-04 17:59 | 50.03300 | 8.56896 | 354 ft | 2 kts | 253° |
| 2026-05-04 17:59 | 50.03326 | 8.56807 | 358 ft | 14 kts | 305° |
| 2026-05-04 17:59 | 50.03291 | 8.56478 | 353 ft | 19 kts | 248° |
| 2026-05-04 18:00 | 50.03247 | 8.56275 | 355 ft | 20 kts | 250° |
| 2026-05-04 18:00 | 50.03194 | 8.56064 | 352 ft | 22 kts | 249° |
| 2026-05-04 18:00 | 50.03140 | 8.55837 | 349 ft | 24 kts | 250° |
| 2026-05-04 18:00 | 50.03080 | 8.55584 | 346 ft | 26 kts | 250° |
| 2026-05-04 18:01 | 50.03015 | 8.55315 | 338 ft | 27 kts | 249° |
| 2026-05-04 18:01 | 50.02948 | 8.55034 | 339 ft | 27 kts | 249° |
| 2026-05-04 18:01 | 50.02886 | 8.54848 | 338 ft | 18 kts | 212° |
| 2026-05-04 18:02 | 50.02740 | 8.54560 | 336 ft | 19 kts | 250° |
| 2026-05-04 18:02 | 50.02728 | 8.54507 | 337 ft | 0 kts | 250° |
| 2026-05-04 18:02 | 50.02725 | 8.54494 | 340 ft | 4 kts | 250° |
| 2026-05-04 18:03 | 50.02712 | 8.54436 | 336 ft | 7 kts | 251° |
| 2026-05-04 18:03 | 50.02692 | 8.54343 | 340 ft | 11 kts | 251° |
| 2026-05-04 18:03 | 50.02666 | 8.54211 | 335 ft | 15 kts | 253° |
| 2026-05-04 18:03 | 50.02630 | 8.54043 | 336 ft | 18 kts | 250° |
| 2026-05-04 18:04 | 50.02584 | 8.53846 | 330 ft | 21 kts | 250° |
| 2026-05-04 18:04 | 50.02534 | 8.53633 | 332 ft | 21 kts | 250° |
| 2026-05-04 18:04 | 50.02423 | 8.53184 | 331 ft | 24 kts | 248° |
| 2026-05-04 18:05 | 50.02369 | 8.52946 | 334 ft | 10 kts | 252° |
| 2026-05-04 18:05 | 50.02367 | 8.52935 | 331 ft | 3 kts | 251° |
| 2026-05-04 18:05 | 50.02355 | 8.52882 | 332 ft | 7 kts | 250° |
| 2026-05-04 18:05 | 50.02331 | 8.52792 | 333 ft | 11 kts | 247° |
| 2026-05-04 18:06 | 50.02277 | 8.52610 | 332 ft | 1 kts | 224° |
| 2026-05-04 18:06 | 50.02269 | 8.52610 | 333 ft | 5 kts | 190° |
| 2026-05-04 18:06 | 50.02259 | 8.52610 | 334 ft | 0 kts | 178° |
| 2026-05-04 18:07 | 50.02019 | 8.52608 | 333 ft | 72 kts | 181° |
| 2026-05-04 18:07 | 50.01286 | 8.52608 | 333 ft | 135 kts | 179° |
| 2026-05-04 18:07 | 50.00204 | 8.52627 | 512 ft | 163 kts | 179° |
| 2026-05-04 18:07 | 49.99077 | 8.52712 | 1112 ft | 166 kts | 178° |
| 2026-05-04 18:08 | 49.97896 | 8.52814 | 1730 ft | 171 kts | 177° |
| 2026-05-04 18:08 | 49.96687 | 8.52913 | 2308 ft | 179 kts | 178° |
| 2026-05-04 18:08 | 49.95388 | 8.53010 | 2731 ft | 196 kts | 178° |
| 2026-05-04 18:08 | 49.93956 | 8.53108 | 3060 ft | 217 kts | 178° |
| 2026-05-04 18:09 | 49.90771 | 8.53317 | 3898 ft | 232 kts | 178° |
| 2026-05-04 18:09 | 49.87545 | 8.53529 | 4017 ft | 233 kts | 178° |
| 2026-05-04 18:10 | 49.85920 | 8.53636 | 4323 ft | 235 kts | 178° |
| 2026-05-04 18:10 | 49.84292 | 8.53741 | 5186 ft | 233 kts | 178° |
| 2026-05-04 18:10 | 49.82694 | 8.53849 | 6333 ft | 226 kts | 178° |
| 2026-05-04 18:10 | 49.81122 | 8.53975 | 7231 ft | 232 kts | 174° |
| 2026-05-04 18:11 | 49.79546 | 8.54905 | 7708 ft | 258 kts | 146° |
| 2026-05-04 18:11 | 49.78349 | 8.57095 | 8269 ft | 279 kts | 118° |
| 2026-05-04 18:11 | 49.77910 | 8.60106 | 9125 ft | 291 kts | 92° |
| 2026-05-04 18:11 | 49.78048 | 8.63275 | 9995 ft | 298 kts | 86° |
| 2026-05-04 18:12 | 49.78223 | 8.66531 | 10624 ft | 312 kts | 89° |
| 2026-05-04 18:12 | 49.78267 | 8.70000 | 10893 ft | 336 kts | 93° |
| 2026-05-04 18:12 | 49.78170 | 8.73732 | 11149 ft | 352 kts | 96° |
| 2026-05-04 18:12 | 49.77996 | 8.77486 | 11385 ft | 351 kts | 97° |
| 2026-05-04 18:13 | 49.77790 | 8.81270 | 11648 ft | 353 kts | 97° |
| 2026-05-04 18:13 | 49.77574 | 8.85090 | 11898 ft | 354 kts | 97° |
| 2026-05-04 18:13 | 49.77216 | 8.91456 | 12328 ft | 358 kts | 97° |
| 2026-05-04 18:14 | 49.76927 | 8.96589 | 12668 ft | 359 kts | 97° |
| 2026-05-04 18:14 | 49.76785 | 8.99129 | 12828 ft | 359 kts | 97° |
| 2026-05-04 18:14 | 49.76567 | 9.03003 | 13099 ft | 362 kts | 97° |
| 2026-05-04 18:15 | 49.75981 | 9.10735 | 13638 ft | 362 kts | 105° |
| 2026-05-04 18:15 | 49.74477 | 9.18151 | 14132 ft | 362 kts | 119° |
| 2026-05-04 18:15 | 49.73137 | 9.21432 | 14779 ft | 362 kts | 130° |
| 2026-05-04 18:16 | 49.71486 | 9.24376 | 15550 ft | 364 kts | 134° |
| 2026-05-04 18:16 | 49.69772 | 9.27394 | 16260 ft | 368 kts | 133° |
| 2026-05-04 18:16 | 49.68122 | 9.30316 | 16924 ft | 372 kts | 133° |
| 2026-05-04 18:17 | 49.64678 | 9.36411 | 18289 ft | 380 kts | 133° |
| 2026-05-04 18:17 | 49.62888 | 9.39455 | 18891 ft | 382 kts | 138° |
| 2026-05-04 18:17 | 49.58653 | 9.44398 | 20112 ft | 384 kts | 152° |
| 2026-05-04 18:18 | 49.56358 | 9.46467 | 20716 ft | 387 kts | 152° |
| 2026-05-04 18:18 | 49.54011 | 9.48599 | 21315 ft | 390 kts | 152° |
| 2026-05-04 18:18 | 49.51640 | 9.50760 | 21920 ft | 393 kts | 152° |
| 2026-05-04 18:18 | 49.49315 | 9.52882 | 22493 ft | 396 kts | 152° |
| 2026-05-04 18:19 | 49.44533 | 9.57243 | 23632 ft | 402 kts | 152° |
| 2026-05-04 18:19 | 49.42093 | 9.59463 | 24121 ft | 405 kts | 153° |
| 2026-05-04 18:19 | 49.39652 | 9.61682 | 24603 ft | 408 kts | 153° |
| 2026-05-04 18:20 | 49.37208 | 9.63901 | 25041 ft | 411 kts | 153° |
| 2026-05-04 18:20 | 49.34783 | 9.66250 | 25501 ft | 416 kts | 148° |
| 2026-05-04 18:20 | 49.32511 | 9.69068 | 25951 ft | 421 kts | 141° |
| 2026-05-04 18:20 | 49.30431 | 9.72224 | 26376 ft | 426 kts | 138° |
| 2026-05-04 18:21 | 49.28340 | 9.75451 | 26801 ft | 428 kts | 139° |
| 2026-05-04 18:21 | 49.26221 | 9.78700 | 27222 ft | 431 kts | 139° |
| 2026-05-04 18:21 | 49.24103 | 9.81934 | 27625 ft | 434 kts | 139° |
| 2026-05-04 18:21 | 49.21949 | 9.85214 | 28024 ft | 436 kts | 139° |
| 2026-05-04 18:22 | 49.19790 | 9.88495 | 28407 ft | 439 kts | 139° |
| 2026-05-04 18:22 | 49.17624 | 9.91782 | 28778 ft | 441 kts | 139° |
| 2026-05-04 18:22 | 49.15411 | 9.95134 | 29137 ft | 444 kts | 139° |
| 2026-05-04 18:22 | 49.13233 | 9.98507 | 29478 ft | 447 kts | 136° |
| 2026-05-04 18:23 | 49.11182 | 10.02097 | 29819 ft | 451 kts | 134° |
| 2026-05-04 18:23 | 49.09189 | 10.05750 | 30132 ft | 454 kts | 133° |
| 2026-05-04 18:23 | 49.07168 | 10.09450 | 30455 ft | 456 kts | 133° |
| 2026-05-04 18:23 | 49.05109 | 10.13170 | 30777 ft | 457 kts | 134° |
| 2026-05-04 18:24 | 49.03029 | 10.16884 | 31100 ft | 459 kts | 134° |
| 2026-05-04 18:24 | 49.00944 | 10.20578 | 31498 ft | 458 kts | 134° |
| 2026-05-04 18:24 | 48.98807 | 10.24347 | 31914 ft | 457 kts | 134° |
| 2026-05-04 18:24 | 48.96785 | 10.27905 | 32345 ft | 456 kts | 134° |
| 2026-05-04 18:25 | 48.94722 | 10.31529 | 32747 ft | 454 kts | 134° |
| 2026-05-04 18:25 | 48.92649 | 10.35167 | 33163 ft | 453 kts | 134° |
| 2026-05-04 18:25 | 48.90591 | 10.38772 | 33563 ft | 451 kts | 134° |
| 2026-05-04 18:25 | 48.88544 | 10.42352 | 33958 ft | 450 kts | 134° |
| 2026-05-04 18:26 | 48.86489 | 10.45943 | 34292 ft | 448 kts | 134° |
| 2026-05-04 18:26 | 48.84444 | 10.49510 | 34559 ft | 448 kts | 134° |
| 2026-05-04 18:26 | 48.82233 | 10.53362 | 34841 ft | 448 kts | 134° |
| 2026-05-04 18:26 | 48.80342 | 10.56652 | 35086 ft | 448 kts | 134° |
| 2026-05-04 18:27 | 48.78298 | 10.60205 | 35323 ft | 448 kts | 134° |
| 2026-05-04 18:27 | 48.76251 | 10.63760 | 35569 ft | 448 kts | 134° |
| 2026-05-04 18:27 | 48.74201 | 10.67313 | 35802 ft | 448 kts | 134° |
| 2026-05-04 18:27 | 48.72143 | 10.70875 | 36028 ft | 448 kts | 134° |
| 2026-05-04 18:28 | 48.70074 | 10.74452 | 36240 ft | 448 kts | 134° |
| 2026-05-04 18:28 | 48.68009 | 10.78017 | 36432 ft | 448 kts | 134° |
| 2026-05-04 18:28 | 48.65961 | 10.81548 | 36638 ft | 449 kts | 134° |
| 2026-05-04 18:28 | 48.63893 | 10.85110 | 36830 ft | 449 kts | 134° |
| 2026-05-04 18:29 | 48.61829 | 10.88658 | 36940 ft | 449 kts | 134° |
| 2026-05-04 18:29 | 48.59768 | 10.92199 | 36942 ft | 448 kts | 134° |
| 2026-05-04 18:29 | 48.55661 | 10.99238 | 36940 ft | 448 kts | 134° |
| 2026-05-04 18:30 | 48.49478 | 11.09799 | 36938 ft | 448 kts | 134° |
| 2026-05-04 18:31 | 48.45353 | 11.16820 | 36939 ft | 448 kts | 134° |
| 2026-05-04 18:31 | 48.41207 | 11.23860 | 36937 ft | 448 kts | 135° |
| 2026-05-04 18:32 | 48.37066 | 11.30871 | 36940 ft | 449 kts | 135° |
| 2026-05-04 18:32 | 48.32915 | 11.37881 | 36944 ft | 449 kts | 135° |
| 2026-05-04 18:33 | 48.28759 | 11.44883 | 36940 ft | 449 kts | 135° |
| 2026-05-04 18:33 | 48.24599 | 11.51871 | 36942 ft | 449 kts | 135° |
| 2026-05-04 18:34 | 48.20427 | 11.58862 | 36941 ft | 449 kts | 135° |
| 2026-05-04 18:34 | 48.16238 | 11.65863 | 36942 ft | 449 kts | 135° |
| 2026-05-04 18:35 | 48.12062 | 11.72823 | 36936 ft | 449 kts | 135° |
| 2026-05-04 18:35 | 48.07884 | 11.79769 | 36936 ft | 449 kts | 135° |
| 2026-05-04 18:36 | 48.03701 | 11.86704 | 36934 ft | 449 kts | 135° |
| 2026-05-04 18:36 | 47.99485 | 11.93676 | 36930 ft | 449 kts | 135° |
| 2026-05-04 18:37 | 47.95328 | 12.00532 | 36926 ft | 448 kts | 135° |
| 2026-05-04 18:37 | 47.91090 | 12.07504 | 36922 ft | 448 kts | 135° |
| 2026-05-04 18:38 | 47.86890 | 12.14394 | 36921 ft | 448 kts | 135° |
| 2026-05-04 18:38 | 47.82695 | 12.21260 | 36917 ft | 448 kts | 135° |
| 2026-05-04 18:39 | 47.78503 | 12.28102 | 36920 ft | 448 kts | 135° |
| 2026-05-04 18:39 | 47.74269 | 12.34995 | 36924 ft | 448 kts | 135° |
| 2026-05-04 18:40 | 47.70078 | 12.41800 | 36924 ft | 449 kts | 135° |
| 2026-05-04 18:40 | 47.65812 | 12.48713 | 36925 ft | 449 kts | 135° |
| 2026-05-04 18:41 | 47.62266 | 12.54449 | 36926 ft | 449 kts | 135° |
| 2026-05-04 18:41 | 47.58013 | 12.61245 | 36928 ft | 450 kts | 135° |
| 2026-05-04 18:42 | 47.53725 | 12.68072 | 36924 ft | 449 kts | 135° |
| 2026-05-04 18:42 | 47.49470 | 12.74849 | 36934 ft | 449 kts | 135° |
| 2026-05-04 18:43 | 47.45230 | 12.81581 | 36962 ft | 450 kts | 135° |
| 2026-05-04 18:43 | 47.40946 | 12.88364 | 36963 ft | 450 kts | 135° |
| 2026-05-04 18:44 | 47.36642 | 12.95162 | 36977 ft | 451 kts | 135° |
| 2026-05-04 18:44 | 47.32322 | 13.01969 | 36988 ft | 452 kts | 135° |
| 2026-05-04 18:45 | 47.28032 | 13.08711 | 36998 ft | 452 kts | 135° |
| 2026-05-04 18:45 | 47.23722 | 13.15466 | 37009 ft | 452 kts | 135° |
| 2026-05-04 18:46 | 47.19418 | 13.22194 | 37014 ft | 452 kts | 135° |
| 2026-05-04 18:46 | 47.15087 | 13.28949 | 37019 ft | 452 kts | 135° |
| 2026-05-04 18:47 | 47.10790 | 13.35634 | 37026 ft | 450 kts | 136° |
| 2026-05-04 18:47 | 47.06484 | 13.42316 | 37023 ft | 451 kts | 136° |
| 2026-05-04 18:48 | 47.02160 | 13.49003 | 37028 ft | 452 kts | 135° |
| 2026-05-04 18:48 | 46.97837 | 13.55678 | 37039 ft | 452 kts | 135° |
| 2026-05-04 18:49 | 46.93517 | 13.62332 | 37038 ft | 452 kts | 135° |
| 2026-05-04 18:49 | 46.89178 | 13.68997 | 37032 ft | 452 kts | 136° |
| 2026-05-04 18:50 | 46.84836 | 13.75651 | 37029 ft | 451 kts | 136° |
| 2026-05-04 18:50 | 46.80478 | 13.82312 | 37026 ft | 451 kts | 136° |
| 2026-05-04 18:51 | 46.76140 | 13.88926 | 37018 ft | 451 kts | 136° |
| 2026-05-04 18:51 | 46.71819 | 13.95497 | 37017 ft | 451 kts | 136° |
| 2026-05-04 18:52 | 46.67442 | 14.02137 | 37015 ft | 451 kts | 136° |
| 2026-05-04 18:52 | 46.63094 | 14.08718 | 37012 ft | 452 kts | 136° |
| 2026-05-04 18:53 | 46.58741 | 14.15288 | 37014 ft | 453 kts | 136° |
| 2026-05-04 18:53 | 46.54348 | 14.21902 | 37018 ft | 453 kts | 136° |
| 2026-05-04 18:54 | 46.49969 | 14.28481 | 37016 ft | 453 kts | 136° |
| 2026-05-04 18:54 | 46.45611 | 14.35011 | 37027 ft | 454 kts | 136° |
| 2026-05-04 18:55 | 46.41208 | 14.41590 | 37060 ft | 455 kts | 136° |
| 2026-05-04 18:55 | 46.34596 | 14.51443 | 37075 ft | 456 kts | 136° |
| 2026-05-04 18:56 | 46.30171 | 14.58017 | 37068 ft | 454 kts | 136° |
| 2026-05-04 18:56 | 46.25740 | 14.64584 | 37071 ft | 458 kts | 136° |
| 2026-05-04 18:57 | 46.21288 | 14.71164 | 37070 ft | 458 kts | 136° |
| 2026-05-04 18:57 | 46.16825 | 14.77746 | 37062 ft | 458 kts | 136° |
| 2026-05-04 18:58 | 46.12371 | 14.84296 | 37056 ft | 456 kts | 136° |
| 2026-05-04 18:58 | 46.07903 | 14.90853 | 37036 ft | 455 kts | 136° |
| 2026-05-04 18:59 | 46.03474 | 14.97337 | 37023 ft | 453 kts | 136° |
| 2026-05-04 18:59 | 45.99069 | 15.03766 | 37049 ft | 458 kts | 136° |
| 2026-05-04 19:00 | 45.94579 | 15.10307 | 37044 ft | 458 kts | 136° |
| 2026-05-04 19:00 | 45.90113 | 15.16797 | 37033 ft | 458 kts | 136° |
| 2026-05-04 19:01 | 45.85642 | 15.23277 | 37032 ft | 458 kts | 136° |
| 2026-05-04 19:01 | 45.81142 | 15.29788 | 37029 ft | 459 kts | 136° |
| 2026-05-04 19:02 | 45.76644 | 15.36288 | 37035 ft | 460 kts | 135° |
| 2026-05-04 19:02 | 45.72276 | 15.43009 | 37032 ft | 460 kts | 133° |
| 2026-05-04 19:03 | 45.67966 | 15.49770 | 37035 ft | 461 kts | 134° |
| 2026-05-04 19:03 | 45.63609 | 15.56526 | 37029 ft | 462 kts | 134° |
| 2026-05-04 19:04 | 45.59259 | 15.63229 | 37034 ft | 459 kts | 134° |
| 2026-05-04 19:04 | 45.54903 | 15.69920 | 37030 ft | 460 kts | 134° |
| 2026-05-04 19:05 | 45.50555 | 15.76586 | 37030 ft | 460 kts | 134° |
| 2026-05-04 19:05 | 45.46179 | 15.83277 | 37029 ft | 460 kts | 134° |
| 2026-05-04 19:06 | 45.41810 | 15.89942 | 37026 ft | 460 kts | 134° |
| 2026-05-04 19:06 | 45.37447 | 15.96581 | 37025 ft | 461 kts | 134° |
| 2026-05-04 19:07 | 45.33051 | 16.03254 | 37031 ft | 461 kts | 134° |
| 2026-05-04 19:07 | 45.28658 | 16.09907 | 37032 ft | 463 kts | 134° |
| 2026-05-04 19:08 | 45.24263 | 16.16546 | 37040 ft | 460 kts | 134° |
| 2026-05-04 19:08 | 45.19872 | 16.23163 | 37033 ft | 461 kts | 134° |
| 2026-05-04 19:09 | 45.15467 | 16.29786 | 37036 ft | 461 kts | 134° |
| 2026-05-04 19:09 | 45.11050 | 16.36410 | 37042 ft | 464 kts | 134° |
| 2026-05-04 19:10 | 45.06628 | 16.43025 | 37043 ft | 464 kts | 134° |
| 2026-05-04 19:10 | 45.02197 | 16.49639 | 37043 ft | 462 kts | 134° |
| 2026-05-04 19:11 | 44.97764 | 16.56239 | 37042 ft | 463 kts | 134° |
| 2026-05-04 19:11 | 44.93333 | 16.62819 | 37046 ft | 463 kts | 134° |
| 2026-05-04 19:12 | 44.86668 | 16.72690 | 37044 ft | 463 kts | 134° |
| 2026-05-04 19:13 | 44.82224 | 16.79251 | 37050 ft | 463 kts | 134° |
| 2026-05-04 19:13 | 44.77777 | 16.85802 | 37056 ft | 464 kts | 134° |
| 2026-05-04 19:14 | 44.73307 | 16.92370 | 37059 ft | 464 kts | 134° |
| 2026-05-04 19:14 | 44.68632 | 16.98624 | 37059 ft | 464 kts | 140° |
| 2026-05-04 19:15 | 44.63712 | 17.04490 | 37058 ft | 464 kts | 140° |
| 2026-05-04 19:15 | 44.58794 | 17.10373 | 37070 ft | 464 kts | 140° |
| 2026-05-04 19:16 | 44.54710 | 17.15246 | 37065 ft | 465 kts | 140° |
| 2026-05-04 19:16 | 44.49788 | 17.21105 | 37073 ft | 465 kts | 140° |
| 2026-05-04 19:17 | 44.44812 | 17.27015 | 37073 ft | 465 kts | 140° |
| 2026-05-04 19:17 | 44.39917 | 17.32815 | 37080 ft | 465 kts | 140° |
| 2026-05-04 19:18 | 44.34917 | 17.38725 | 37083 ft | 465 kts | 140° |
| 2026-05-04 19:18 | 44.29966 | 17.44564 | 37089 ft | 465 kts | 140° |
| 2026-05-04 19:19 | 44.25016 | 17.50388 | 37086 ft | 465 kts | 140° |
| 2026-05-04 19:19 | 44.20068 | 17.56197 | 37088 ft | 465 kts | 140° |
| 2026-05-04 19:20 | 44.15118 | 17.61997 | 37088 ft | 465 kts | 140° |
| 2026-05-04 19:20 | 44.10173 | 17.67803 | 37085 ft | 465 kts | 139° |
| 2026-05-04 19:21 | 44.05404 | 17.73879 | 37085 ft | 465 kts | 137° |
| 2026-05-04 19:21 | 44.00645 | 17.80004 | 37081 ft | 466 kts | 137° |
| 2026-05-04 19:22 | 43.95881 | 17.86059 | 37080 ft | 466 kts | 137° |
| 2026-05-04 19:22 | 43.91078 | 17.92127 | 37082 ft | 466 kts | 137° |
| 2026-05-04 19:23 | 43.86273 | 17.98180 | 37076 ft | 466 kts | 137° |
| 2026-05-04 19:23 | 43.81477 | 18.04211 | 37080 ft | 467 kts | 137° |
| 2026-05-04 19:24 | 43.76661 | 18.10252 | 37071 ft | 467 kts | 137° |
| 2026-05-04 19:24 | 43.71836 | 18.16292 | 37075 ft | 468 kts | 137° |
| 2026-05-04 19:25 | 43.67017 | 18.22310 | 37079 ft | 468 kts | 137° |
| 2026-05-04 19:25 | 43.62164 | 18.28356 | 37086 ft | 469 kts | 137° |
| 2026-05-04 19:26 | 43.57314 | 18.34386 | 37097 ft | 470 kts | 137° |
| 2026-05-04 19:26 | 43.52464 | 18.40401 | 37113 ft | 470 kts | 137° |
| 2026-05-04 19:27 | 43.47595 | 18.46428 | 37112 ft | 470 kts | 137° |
| 2026-05-04 19:27 | 43.42730 | 18.52434 | 37118 ft | 471 kts | 137° |
| 2026-05-04 19:28 | 43.37849 | 18.58449 | 37114 ft | 471 kts | 137° |
| 2026-05-04 19:28 | 43.32964 | 18.64453 | 37116 ft | 471 kts | 137° |
| 2026-05-04 19:29 | 43.28072 | 18.70451 | 37118 ft | 472 kts | 137° |
| 2026-05-04 19:29 | 43.23171 | 18.76448 | 37123 ft | 472 kts | 137° |
| 2026-05-04 19:30 | 43.18268 | 18.82437 | 37124 ft | 472 kts | 137° |
| 2026-05-04 19:30 | 43.13372 | 18.88400 | 37128 ft | 472 kts | 137° |
| 2026-05-04 19:31 | 43.08440 | 18.94396 | 37125 ft | 472 kts | 137° |
| 2026-05-04 19:31 | 43.03522 | 19.00360 | 37128 ft | 472 kts | 137° |
| 2026-05-04 19:32 | 42.98682 | 19.06217 | 37124 ft | 472 kts | 137° |
| 2026-05-04 19:32 | 42.93697 | 19.12234 | 37127 ft | 472 kts | 137° |
| 2026-05-04 19:33 | 42.88781 | 19.18157 | 37126 ft | 472 kts | 138° |
| 2026-05-04 19:33 | 42.83863 | 19.24068 | 37132 ft | 472 kts | 138° |
| 2026-05-04 19:34 | 42.78941 | 19.29972 | 37126 ft | 471 kts | 138° |
| 2026-05-04 19:34 | 42.74021 | 19.35861 | 37126 ft | 471 kts | 138° |
| 2026-05-04 19:35 | 42.69099 | 19.41739 | 37120 ft | 471 kts | 138° |
| 2026-05-04 19:35 | 42.64212 | 19.47562 | 37120 ft | 471 kts | 138° |
| 2026-05-04 19:36 | 42.59237 | 19.53477 | 37122 ft | 471 kts | 138° |
| 2026-05-04 19:36 | 42.54302 | 19.59336 | 37122 ft | 472 kts | 138° |
| 2026-05-04 19:37 | 42.49207 | 19.64941 | 37117 ft | 471 kts | 140° |
| 2026-05-04 19:37 | 42.44096 | 19.70518 | 37125 ft | 472 kts | 140° |
| 2026-05-04 19:38 | 42.38981 | 19.76085 | 37129 ft | 473 kts | 140° |
| 2026-05-04 19:38 | 42.33848 | 19.81647 | 37127 ft | 473 kts | 141° |
| 2026-05-04 19:39 | 42.28706 | 19.87206 | 37128 ft | 473 kts | 141° |
| 2026-05-04 19:39 | 42.23566 | 19.92750 | 37132 ft | 474 kts | 141° |
| 2026-05-04 19:40 | 42.18405 | 19.98306 | 37136 ft | 474 kts | 141° |
| 2026-05-04 19:40 | 42.13278 | 20.03812 | 37135 ft | 475 kts | 141° |
| 2026-05-04 19:41 | 42.08087 | 20.09374 | 37142 ft | 475 kts | 141° |
| 2026-05-04 19:41 | 42.02889 | 20.14934 | 37148 ft | 476 kts | 141° |
| 2026-05-04 19:42 | 41.97740 | 20.20429 | 37151 ft | 476 kts | 141° |
| 2026-05-04 19:42 | 41.92542 | 20.25964 | 37155 ft | 477 kts | 141° |
| 2026-05-04 19:43 | 41.87303 | 20.31531 | 37151 ft | 477 kts | 141° |
| 2026-05-04 19:43 | 41.82102 | 20.37046 | 37155 ft | 477 kts | 141° |
| 2026-05-04 19:44 | 41.76932 | 20.42516 | 37154 ft | 477 kts | 141° |
| 2026-05-04 19:44 | 41.71721 | 20.48018 | 37155 ft | 477 kts | 141° |
| 2026-05-04 19:45 | 41.66514 | 20.53505 | 37152 ft | 477 kts | 141° |
| 2026-05-04 19:45 | 41.61314 | 20.58999 | 37148 ft | 476 kts | 141° |
| 2026-05-04 19:46 | 41.56119 | 20.64489 | 37152 ft | 476 kts | 141° |
| 2026-05-04 19:46 | 41.50921 | 20.69966 | 37143 ft | 476 kts | 141° |
| 2026-05-04 19:47 | 41.45709 | 20.75444 | 37141 ft | 476 kts | 141° |
| 2026-05-04 19:47 | 41.40498 | 20.80909 | 37139 ft | 477 kts | 141° |
| 2026-05-04 19:48 | 41.35282 | 20.86369 | 37141 ft | 477 kts | 141° |
| 2026-05-04 19:48 | 41.30071 | 20.91812 | 37139 ft | 478 kts | 141° |
| 2026-05-04 19:49 | 41.24828 | 20.97277 | 37143 ft | 478 kts | 141° |
| 2026-05-04 19:49 | 41.19584 | 21.02731 | 37137 ft | 479 kts | 141° |
| 2026-05-04 19:50 | 41.14324 | 21.08191 | 37142 ft | 480 kts | 141° |
| 2026-05-04 19:50 | 41.09063 | 21.13640 | 37139 ft | 481 kts | 141° |
| 2026-05-04 19:51 | 41.03782 | 21.19098 | 37132 ft | 481 kts | 141° |
| 2026-05-04 19:51 | 40.98504 | 21.24542 | 37133 ft | 482 kts | 141° |
| 2026-05-04 19:52 | 40.93215 | 21.29988 | 37132 ft | 482 kts | 141° |
| 2026-05-04 19:52 | 40.87924 | 21.35426 | 37133 ft | 482 kts | 140° |
| 2026-05-04 19:53 | 40.82879 | 21.41256 | 37134 ft | 481 kts | 137° |
| 2026-05-04 19:53 | 40.78691 | 21.46179 | 37141 ft | 482 kts | 137° |
| 2026-05-04 19:54 | 40.73680 | 21.52059 | 37134 ft | 482 kts | 137° |
| 2026-05-04 19:54 | 40.68673 | 21.57923 | 37130 ft | 482 kts | 137° |
| 2026-05-04 19:55 | 40.63657 | 21.63784 | 37129 ft | 482 kts | 137° |
| 2026-05-04 19:55 | 40.58639 | 21.69635 | 37127 ft | 482 kts | 137° |
| 2026-05-04 19:56 | 40.53613 | 21.75479 | 37133 ft | 482 kts | 137° |
| 2026-05-04 19:56 | 40.48585 | 21.81311 | 37141 ft | 483 kts | 137° |
| 2026-05-04 19:57 | 40.43551 | 21.87136 | 37149 ft | 483 kts | 137° |
| 2026-05-04 19:57 | 40.38504 | 21.92965 | 37145 ft | 483 kts | 137° |
| 2026-05-04 19:58 | 40.33467 | 21.98769 | 37161 ft | 483 kts | 137° |
| 2026-05-04 19:58 | 40.28422 | 22.04572 | 37152 ft | 482 kts | 137° |
| 2026-05-04 19:59 | 40.23374 | 22.10364 | 37133 ft | 483 kts | 137° |
| 2026-05-04 19:59 | 40.18324 | 22.16149 | 37131 ft | 482 kts | 137° |
| 2026-05-04 20:00 | 40.13274 | 22.21920 | 37116 ft | 482 kts | 138° |
| 2026-05-04 20:00 | 40.08222 | 22.27682 | 37109 ft | 482 kts | 138° |
| 2026-05-04 20:01 | 40.03161 | 22.33443 | 37107 ft | 481 kts | 138° |
| 2026-05-04 20:01 | 39.98111 | 22.39178 | 37097 ft | 481 kts | 138° |
| 2026-05-04 20:02 | 39.93065 | 22.44900 | 37104 ft | 482 kts | 138° |
| 2026-05-04 20:02 | 39.87986 | 22.50647 | 37100 ft | 483 kts | 138° |
| 2026-05-04 20:03 | 39.82915 | 22.56373 | 37110 ft | 484 kts | 138° |
| 2026-05-04 20:03 | 39.77825 | 22.62108 | 37124 ft | 485 kts | 138° |
| 2026-05-04 20:04 | 39.72718 | 22.67849 | 37110 ft | 483 kts | 138° |
| 2026-05-04 20:04 | 39.67644 | 22.73544 | 37111 ft | 483 kts | 138° |
| 2026-05-04 20:05 | 39.62547 | 22.79252 | 37110 ft | 483 kts | 138° |
| 2026-05-04 20:05 | 39.57459 | 22.84938 | 37108 ft | 483 kts | 138° |
| 2026-05-04 20:06 | 39.52322 | 22.90668 | 37111 ft | 484 kts | 138° |
| 2026-05-04 20:06 | 39.47216 | 22.96351 | 37116 ft | 484 kts | 139° |
| 2026-05-04 20:07 | 39.42106 | 23.02028 | 37124 ft | 484 kts | 139° |
| 2026-05-04 20:07 | 39.36987 | 23.07704 | 37119 ft | 484 kts | 139° |
| 2026-05-04 20:08 | 39.31884 | 23.13350 | 37106 ft | 483 kts | 139° |
| 2026-05-04 20:08 | 39.26773 | 23.18994 | 37089 ft | 483 kts | 139° |
| 2026-05-04 20:09 | 39.21676 | 23.24610 | 37083 ft | 484 kts | 139° |
| 2026-05-04 20:09 | 39.16552 | 23.30247 | 37085 ft | 484 kts | 139° |
| 2026-05-04 20:10 | 39.11420 | 23.35881 | 37084 ft | 484 kts | 139° |
| 2026-05-04 20:10 | 39.06289 | 23.41502 | 37091 ft | 485 kts | 139° |
| 2026-05-04 20:11 | 39.01149 | 23.47121 | 37096 ft | 485 kts | 139° |
| 2026-05-04 20:11 | 38.96013 | 23.52726 | 37095 ft | 484 kts | 139° |
| 2026-05-04 20:12 | 38.90888 | 23.58306 | 37096 ft | 482 kts | 139° |
| 2026-05-04 20:12 | 38.85770 | 23.63869 | 37108 ft | 482 kts | 139° |
| 2026-05-04 20:13 | 38.80641 | 23.69432 | 37114 ft | 483 kts | 139° |
| 2026-05-04 20:13 | 38.75523 | 23.74973 | 37111 ft | 483 kts | 139° |
| 2026-05-04 20:14 | 38.70374 | 23.80538 | 37114 ft | 483 kts | 139° |
| 2026-05-04 20:14 | 38.65237 | 23.86078 | 37123 ft | 484 kts | 139° |
| 2026-05-04 20:15 | 38.60086 | 23.91622 | 37121 ft | 484 kts | 139° |
| 2026-05-04 20:15 | 38.54934 | 23.97157 | 37117 ft | 483 kts | 139° |
| 2026-05-04 20:16 | 38.49796 | 24.02665 | 37115 ft | 482 kts | 139° |
| 2026-05-04 20:16 | 38.44683 | 24.08137 | 37118 ft | 483 kts | 139° |
| 2026-05-04 20:17 | 38.39499 | 24.13674 | 37117 ft | 483 kts | 139° |
| 2026-05-04 20:17 | 38.34385 | 24.19125 | 37120 ft | 483 kts | 139° |
| 2026-05-04 20:18 | 38.29231 | 24.24610 | 37126 ft | 483 kts | 139° |
| 2026-05-04 20:18 | 38.24065 | 24.30095 | 37131 ft | 486 kts | 139° |
| 2026-05-04 20:19 | 38.18879 | 24.35592 | 37123 ft | 483 kts | 139° |
| 2026-05-04 20:19 | 38.13718 | 24.41051 | 37126 ft | 483 kts | 139° |
| 2026-05-04 20:20 | 38.08550 | 24.46510 | 37125 ft | 483 kts | 139° |
| 2026-05-04 20:20 | 38.03373 | 24.51965 | 37126 ft | 483 kts | 140° |
| 2026-05-04 20:21 | 37.98196 | 24.57410 | 37127 ft | 484 kts | 140° |
| 2026-05-04 20:21 | 37.90422 | 24.65568 | 37131 ft | 484 kts | 140° |
| 2026-05-04 20:22 | 37.85238 | 24.70995 | 37124 ft | 484 kts | 140° |
| 2026-05-04 20:22 | 37.80039 | 24.76427 | 37121 ft | 484 kts | 140° |
| 2026-05-04 20:23 | 37.74843 | 24.81847 | 37122 ft | 485 kts | 140° |
| 2026-05-04 20:23 | 37.69642 | 24.87261 | 37125 ft | 485 kts | 140° |
| 2026-05-04 20:24 | 37.64698 | 24.92399 | 37124 ft | 485 kts | 140° |
| 2026-05-04 20:24 | 37.59501 | 24.97789 | 37126 ft | 485 kts | 140° |
| 2026-05-04 20:25 | 37.54286 | 25.03187 | 37128 ft | 485 kts | 140° |
| 2026-05-04 20:25 | 37.49061 | 25.08586 | 37130 ft | 486 kts | 140° |
| 2026-05-04 20:26 | 37.43839 | 25.13972 | 37130 ft | 486 kts | 140° |
| 2026-05-04 20:26 | 37.38608 | 25.19358 | 37128 ft | 486 kts | 140° |
| 2026-05-04 20:27 | 37.33371 | 25.24738 | 37128 ft | 486 kts | 140° |
| 2026-05-04 20:27 | 37.28127 | 25.30117 | 37126 ft | 486 kts | 140° |
| 2026-05-04 20:28 | 37.22885 | 25.35483 | 37122 ft | 486 kts | 140° |
| 2026-05-04 20:28 | 37.17636 | 25.40847 | 37120 ft | 487 kts | 140° |
| 2026-05-04 20:29 | 37.12383 | 25.46204 | 37116 ft | 487 kts | 140° |
| 2026-05-04 20:29 | 37.07127 | 25.51555 | 37119 ft | 487 kts | 140° |
| 2026-05-04 20:30 | 37.01866 | 25.56902 | 37119 ft | 488 kts | 140° |
| 2026-05-04 20:30 | 36.96594 | 25.62250 | 37116 ft | 488 kts | 140° |
| 2026-05-04 20:31 | 36.91314 | 25.67595 | 37117 ft | 488 kts | 141° |
| 2026-05-04 20:31 | 36.86028 | 25.72937 | 37110 ft | 489 kts | 141° |
| 2026-05-04 20:32 | 36.80741 | 25.78270 | 37110 ft | 489 kts | 141° |
| 2026-05-04 20:32 | 36.75452 | 25.83596 | 37107 ft | 489 kts | 141° |
| 2026-05-04 20:33 | 36.70150 | 25.88925 | 37106 ft | 489 kts | 141° |
| 2026-05-04 20:33 | 36.64850 | 25.94242 | 37108 ft | 490 kts | 141° |
| 2026-05-04 20:34 | 36.60437 | 25.98662 | 37105 ft | 490 kts | 141° |
| 2026-05-04 20:34 | 36.55122 | 26.03976 | 37109 ft | 491 kts | 141° |
| 2026-05-04 20:35 | 36.49787 | 26.09300 | 37108 ft | 491 kts | 141° |
| 2026-05-04 20:35 | 36.44455 | 26.14612 | 37107 ft | 492 kts | 141° |
| 2026-05-04 20:36 | 36.39108 | 26.19930 | 37108 ft | 493 kts | 141° |
| 2026-05-04 20:36 | 36.33757 | 26.25242 | 37106 ft | 493 kts | 141° |
| 2026-05-04 20:37 | 36.28390 | 26.30559 | 37106 ft | 494 kts | 141° |
| 2026-05-04 20:37 | 36.23029 | 26.35861 | 37106 ft | 494 kts | 141° |
| 2026-05-04 20:38 | 36.17646 | 26.41176 | 37106 ft | 494 kts | 141° |
| 2026-05-04 20:38 | 36.12267 | 26.46477 | 37105 ft | 495 kts | 141° |
| 2026-05-04 20:39 | 36.06876 | 26.51780 | 37104 ft | 495 kts | 142° |
| 2026-05-04 20:39 | 36.01489 | 26.57070 | 37100 ft | 495 kts | 142° |
| 2026-05-04 20:40 | 35.96085 | 26.62366 | 37096 ft | 496 kts | 142° |
| 2026-05-04 20:40 | 35.90676 | 26.67659 | 37096 ft | 496 kts | 142° |
| 2026-05-04 20:41 | 35.85258 | 26.72949 | 37092 ft | 497 kts | 142° |
| 2026-05-04 20:41 | 35.79839 | 26.78233 | 37096 ft | 497 kts | 142° |
| 2026-05-04 20:42 | 35.74414 | 26.83512 | 37094 ft | 498 kts | 142° |
| 2026-05-04 20:42 | 35.68976 | 26.88795 | 37096 ft | 498 kts | 142° |
| 2026-05-04 20:43 | 35.63534 | 26.94074 | 37098 ft | 498 kts | 142° |
| 2026-05-04 20:43 | 35.58086 | 26.99352 | 37099 ft | 499 kts | 142° |
| 2026-05-04 20:44 | 35.52629 | 27.04631 | 37102 ft | 499 kts | 142° |
| 2026-05-04 20:44 | 35.47176 | 27.09896 | 37100 ft | 499 kts | 143° |
| 2026-05-04 20:45 | 35.41697 | 27.15150 | 37104 ft | 499 kts | 144° |
| 2026-05-04 20:45 | 35.36205 | 27.20371 | 37104 ft | 500 kts | 142° |
| 2026-05-04 20:46 | 35.30771 | 27.25678 | 37103 ft | 500 kts | 143° |
| 2026-05-04 20:46 | 35.25322 | 27.30946 | 37097 ft | 500 kts | 143° |
| 2026-05-04 20:47 | 35.19854 | 27.36203 | 37091 ft | 500 kts | 143° |
| 2026-05-04 20:47 | 35.14379 | 27.41455 | 37086 ft | 500 kts | 143° |
| 2026-05-04 20:48 | 35.08943 | 27.46660 | 37082 ft | 500 kts | 143° |
| 2026-05-04 20:48 | 35.03424 | 27.51934 | 37078 ft | 500 kts | 143° |
| 2026-05-04 20:49 | 34.97931 | 27.57153 | 37076 ft | 501 kts | 144° |
| 2026-05-04 20:49 | 34.92439 | 27.62364 | 37075 ft | 501 kts | 144° |
| 2026-05-04 20:50 | 34.86963 | 27.67552 | 37075 ft | 502 kts | 144° |
| 2026-05-04 20:50 | 34.81489 | 27.72729 | 37073 ft | 503 kts | 144° |
| 2026-05-04 20:51 | 34.75980 | 27.77930 | 37074 ft | 503 kts | 144° |
| 2026-05-04 20:51 | 34.70439 | 27.83151 | 37079 ft | 504 kts | 144° |
| 2026-05-04 20:52 | 34.64949 | 27.88316 | 37083 ft | 505 kts | 144° |
| 2026-05-04 20:52 | 34.59376 | 27.93550 | 37084 ft | 505 kts | 144° |
| 2026-05-04 20:53 | 34.53807 | 27.98772 | 37087 ft | 506 kts | 144° |
| 2026-05-04 20:53 | 34.48240 | 28.03982 | 37086 ft | 506 kts | 145° |
| 2026-05-04 20:54 | 34.42667 | 28.09188 | 37090 ft | 507 kts | 145° |
| 2026-05-04 20:54 | 34.37074 | 28.14405 | 37091 ft | 507 kts | 145° |
| 2026-05-04 20:55 | 34.31505 | 28.19589 | 37086 ft | 507 kts | 145° |
| 2026-05-04 20:55 | 34.25899 | 28.24799 | 37090 ft | 507 kts | 145° |
| 2026-05-04 20:56 | 34.20324 | 28.29972 | 37089 ft | 506 kts | 145° |
| 2026-05-04 20:56 | 34.14736 | 28.35149 | 37088 ft | 506 kts | 146° |
| 2026-05-04 20:57 | 34.09153 | 28.40310 | 37086 ft | 506 kts | 146° |
| 2026-05-04 20:57 | 34.03555 | 28.45478 | 37083 ft | 506 kts | 146° |
| 2026-05-04 20:58 | 33.97979 | 28.50616 | 37082 ft | 505 kts | 146° |
| 2026-05-04 20:58 | 33.92393 | 28.55755 | 37083 ft | 505 kts | 146° |
| 2026-05-04 20:59 | 33.86835 | 28.60860 | 37082 ft | 505 kts | 146° |
| 2026-05-04 20:59 | 33.81210 | 28.66017 | 37080 ft | 505 kts | 146° |
| 2026-05-04 21:00 | 33.75621 | 28.71133 | 37078 ft | 504 kts | 146° |
| 2026-05-04 21:00 | 33.70133 | 28.76373 | 37079 ft | 507 kts | 140° |
| 2026-05-04 21:01 | 33.64990 | 28.82176 | 37074 ft | 507 kts | 140° |
| 2026-05-04 21:01 | 33.59886 | 28.87920 | 37079 ft | 507 kts | 140° |
| 2026-05-04 21:02 | 33.54717 | 28.93714 | 37080 ft | 507 kts | 140° |
| 2026-05-04 21:02 | 33.49560 | 28.99480 | 37071 ft | 507 kts | 140° |
| 2026-05-04 21:03 | 33.44398 | 29.05244 | 37080 ft | 507 kts | 141° |
| 2026-05-04 21:03 | 33.39238 | 29.10995 | 37083 ft | 508 kts | 141° |
| 2026-05-04 21:04 | 33.34058 | 29.16758 | 37082 ft | 508 kts | 141° |
| 2026-05-04 21:04 | 33.28886 | 29.22503 | 37087 ft | 507 kts | 141° |
| 2026-05-04 21:05 | 33.23740 | 29.28209 | 37086 ft | 507 kts | 141° |
| 2026-05-04 21:05 | 33.18545 | 29.33961 | 37091 ft | 507 kts | 141° |
| 2026-05-04 21:06 | 33.13374 | 29.39674 | 37088 ft | 507 kts | 141° |
| 2026-05-04 21:06 | 33.08195 | 29.45388 | 37087 ft | 506 kts | 141° |
| 2026-05-04 21:07 | 33.03035 | 29.51071 | 37088 ft | 506 kts | 142° |
| 2026-05-04 21:07 | 32.97863 | 29.56759 | 37089 ft | 505 kts | 142° |
| 2026-05-04 21:08 | 32.92702 | 29.62425 | 37086 ft | 505 kts | 142° |
| 2026-05-04 21:08 | 32.87534 | 29.68088 | 37086 ft | 504 kts | 142° |
| 2026-05-04 21:09 | 32.82391 | 29.73715 | 37083 ft | 504 kts | 142° |
| 2026-05-04 21:09 | 32.77222 | 29.79361 | 37081 ft | 503 kts | 142° |
| 2026-05-04 21:10 | 32.72071 | 29.84978 | 37076 ft | 503 kts | 142° |
| 2026-05-04 21:10 | 32.66914 | 29.90593 | 37076 ft | 502 kts | 142° |
| 2026-05-04 21:11 | 32.61783 | 29.96169 | 37078 ft | 502 kts | 143° |
| 2026-05-04 21:11 | 32.56608 | 30.01785 | 37077 ft | 502 kts | 143° |
| 2026-05-04 21:12 | 32.51462 | 30.07360 | 37078 ft | 502 kts | 143° |
| 2026-05-04 21:12 | 32.46318 | 30.12923 | 37083 ft | 501 kts | 143° |
| 2026-05-04 21:13 | 32.41148 | 30.18491 | 37080 ft | 501 kts | 143° |
| 2026-05-04 21:13 | 32.35987 | 30.24044 | 37084 ft | 501 kts | 143° |
| 2026-05-04 21:14 | 32.30832 | 30.29581 | 37100 ft | 501 kts | 143° |
| 2026-05-04 21:14 | 32.25667 | 30.35120 | 37087 ft | 501 kts | 143° |
| 2026-05-04 21:15 | 32.20512 | 30.40640 | 37092 ft | 500 kts | 143° |
| 2026-05-04 21:15 | 32.15350 | 30.46159 | 37098 ft | 500 kts | 144° |
| 2026-05-04 21:16 | 32.10198 | 30.51657 | 37097 ft | 499 kts | 144° |
| 2026-05-04 21:16 | 32.05073 | 30.57122 | 36706 ft | 493 kts | 144° |
| 2026-05-04 21:17 | 32.02532 | 30.59828 | 36118 ft | 492 kts | 144° |
| 2026-05-04 21:17 | 31.99988 | 30.62532 | 35443 ft | 493 kts | 144° |
| 2026-05-04 21:17 | 31.97452 | 30.65225 | 34746 ft | 494 kts | 144° |
| 2026-05-04 21:17 | 31.94889 | 30.67946 | 34058 ft | 494 kts | 144° |
| 2026-05-04 21:18 | 31.93201 | 30.69736 | 33533 ft | 494 kts | 144° |
| 2026-05-04 21:18 | 31.90648 | 30.72443 | 32674 ft | 496 kts | 144° |
| 2026-05-04 21:18 | 31.88074 | 30.75169 | 31803 ft | 498 kts | 144° |
| 2026-05-04 21:18 | 31.85491 | 30.77903 | 30919 ft | 501 kts | 144° |
| 2026-05-04 21:19 | 31.82907 | 30.80637 | 30107 ft | 502 kts | 144° |
| 2026-05-04 21:19 | 31.80307 | 30.83389 | 29410 ft | 498 kts | 144° |
| 2026-05-04 21:19 | 31.77751 | 30.86094 | 28767 ft | 493 kts | 144° |
| 2026-05-04 21:19 | 31.75218 | 30.88771 | 28126 ft | 488 kts | 144° |
| 2026-05-04 21:20 | 31.72708 | 30.91419 | 27476 ft | 483 kts | 144° |
| 2026-05-04 21:20 | 31.70215 | 30.94049 | 26883 ft | 479 kts | 144° |
| 2026-05-04 21:20 | 31.67748 | 30.96648 | 26261 ft | 475 kts | 144° |
| 2026-05-04 21:20 | 31.65288 | 30.99234 | 25665 ft | 471 kts | 145° |
| 2026-05-04 21:21 | 31.62853 | 31.01793 | 25089 ft | 467 kts | 145° |
| 2026-05-04 21:21 | 31.60454 | 31.04313 | 24516 ft | 463 kts | 145° |
| 2026-05-04 21:21 | 31.58050 | 31.06837 | 23965 ft | 460 kts | 145° |
| 2026-05-04 21:21 | 31.55675 | 31.09318 | 23354 ft | 455 kts | 147° |
| 2026-05-04 21:22 | 31.53120 | 31.11359 | 22745 ft | 436 kts | 161° |
| 2026-05-04 21:22 | 31.50363 | 31.12647 | 22122 ft | 418 kts | 174° |
| 2026-05-04 21:22 | 31.47558 | 31.13269 | 21495 ft | 407 kts | 180° |
| 2026-05-04 21:22 | 31.44772 | 31.13777 | 20902 ft | 403 kts | 180° |
| 2026-05-04 21:23 | 31.42008 | 31.14289 | 20315 ft | 400 kts | 180° |
| 2026-05-04 21:23 | 31.39271 | 31.14800 | 19735 ft | 397 kts | 179° |
| 2026-05-04 21:23 | 31.36560 | 31.15307 | 19160 ft | 394 kts | 179° |
| 2026-05-04 21:23 | 31.33847 | 31.15814 | 18608 ft | 392 kts | 179° |
| 2026-05-04 21:24 | 31.31171 | 31.16314 | 18002 ft | 389 kts | 179° |
| 2026-05-04 21:24 | 31.28519 | 31.16811 | 17424 ft | 385 kts | 179° |
| 2026-05-04 21:24 | 31.25875 | 31.17305 | 16826 ft | 382 kts | 179° |
| 2026-05-04 21:24 | 31.23254 | 31.17794 | 16248 ft | 379 kts | 179° |
| 2026-05-04 21:25 | 31.20657 | 31.18278 | 15704 ft | 376 kts | 178° |
| 2026-05-04 21:25 | 31.18121 | 31.18750 | 15158 ft | 374 kts | 178° |
| 2026-05-04 21:25 | 31.15526 | 31.19233 | 14602 ft | 371 kts | 178° |
| 2026-05-04 21:25 | 31.12982 | 31.19706 | 14089 ft | 368 kts | 178° |
| 2026-05-04 21:26 | 31.10507 | 31.20166 | 13540 ft | 366 kts | 178° |
| 2026-05-04 21:26 | 31.08006 | 31.20630 | 13002 ft | 362 kts | 178° |
| 2026-05-04 21:26 | 31.05524 | 31.21092 | 12476 ft | 359 kts | 177° |
| 2026-05-04 21:26 | 31.03045 | 31.21551 | 11936 ft | 356 kts | 177° |
| 2026-05-04 21:27 | 31.00646 | 31.21995 | 11425 ft | 353 kts | 176° |
| 2026-05-04 21:27 | 30.98186 | 31.22452 | 10907 ft | 350 kts | 176° |
| 2026-05-04 21:27 | 30.95799 | 31.22894 | 10455 ft | 346 kts | 176° |
| 2026-05-04 21:27 | 30.93495 | 31.23325 | 10309 ft | 332 kts | 176° |
| 2026-05-04 21:28 | 30.91273 | 31.23742 | 10179 ft | 318 kts | 176° |
| 2026-05-04 21:28 | 30.89131 | 31.24143 | 10060 ft | 305 kts | 176° |
| 2026-05-04 21:28 | 30.87034 | 31.24534 | 9751 ft | 299 kts | 176° |
| 2026-05-04 21:28 | 30.85008 | 31.24906 | 9348 ft | 297 kts | 176° |
| 2026-05-04 21:29 | 30.82972 | 31.25278 | 8947 ft | 295 kts | 176° |
| 2026-05-04 21:29 | 30.80927 | 31.25653 | 8547 ft | 293 kts | 176° |
| 2026-05-04 21:29 | 30.78917 | 31.26023 | 8160 ft | 291 kts | 176° |
| 2026-05-04 21:29 | 30.76950 | 31.26386 | 7793 ft | 289 kts | 175° |
| 2026-05-04 21:30 | 30.74970 | 31.26752 | 7421 ft | 287 kts | 175° |
| 2026-05-04 21:30 | 30.72983 | 31.27118 | 7056 ft | 285 kts | 175° |
| 2026-05-04 21:30 | 30.71057 | 31.27474 | 6706 ft | 282 kts | 175° |
| 2026-05-04 21:30 | 30.69092 | 31.27837 | 6338 ft | 280 kts | 175° |
| 2026-05-04 21:31 | 30.65275 | 31.28541 | 5523 ft | 279 kts | 174° |
| 2026-05-04 21:31 | 30.63368 | 31.28892 | 5129 ft | 278 kts | 174° |
| 2026-05-04 21:31 | 30.61453 | 31.29245 | 4741 ft | 277 kts | 174° |
| 2026-05-04 21:32 | 30.59559 | 31.29594 | 4354 ft | 276 kts | 174° |
| 2026-05-04 21:32 | 30.57661 | 31.29945 | 3976 ft | 275 kts | 174° |
| 2026-05-04 21:32 | 30.55774 | 31.30293 | 3589 ft | 274 kts | 174° |
| 2026-05-04 21:32 | 30.53893 | 31.30639 | 3200 ft | 274 kts | 173° |
| 2026-05-04 21:33 | 30.52021 | 31.30983 | 3010 ft | 271 kts | 173° |
| 2026-05-04 21:33 | 30.50135 | 31.31330 | 2978 ft | 274 kts | 173° |
| 2026-05-04 21:33 | 30.48261 | 31.31676 | 2980 ft | 273 kts | 173° |
| 2026-05-04 21:33 | 30.46465 | 31.32368 | 2971 ft | 276 kts | 151° |
| 2026-05-04 21:34 | 30.44983 | 31.33793 | 2979 ft | 277 kts | 134° |
| 2026-05-04 21:34 | 30.43642 | 31.35401 | 2987 ft | 277 kts | 134° |
| 2026-05-04 21:34 | 30.42305 | 31.36991 | 2986 ft | 277 kts | 134° |
| 2026-05-04 21:34 | 30.40952 | 31.38590 | 2981 ft | 278 kts | 134° |
| 2026-05-04 21:35 | 30.39591 | 31.40190 | 2980 ft | 278 kts | 134° |
| 2026-05-04 21:35 | 30.38241 | 31.41775 | 2978 ft | 277 kts | 134° |
| 2026-05-04 21:35 | 30.36883 | 31.43367 | 2982 ft | 277 kts | 134° |
| 2026-05-04 21:35 | 30.35537 | 31.44946 | 2992 ft | 277 kts | 134° |
| 2026-05-04 21:36 | 30.34179 | 31.46537 | 2995 ft | 277 kts | 134° |
| 2026-05-04 21:36 | 30.32825 | 31.48124 | 2987 ft | 278 kts | 135° |
| 2026-05-04 21:36 | 30.31464 | 31.49719 | 2989 ft | 277 kts | 135° |
| 2026-05-04 21:36 | 30.30118 | 31.51296 | 2979 ft | 277 kts | 135° |
| 2026-05-04 21:37 | 30.28756 | 31.52890 | 2983 ft | 276 kts | 135° |
| 2026-05-04 21:37 | 30.27441 | 31.54427 | 2994 ft | 262 kts | 134° |
| 2026-05-04 21:37 | 30.26195 | 31.55883 | 2990 ft | 246 kts | 134° |
| 2026-05-04 21:37 | 30.25041 | 31.57232 | 2990 ft | 225 kts | 134° |
| 2026-05-04 21:38 | 30.23925 | 31.58354 | 2966 ft | 203 kts | 156° |
| 2026-05-04 21:38 | 30.22611 | 31.58619 | 2999 ft | 182 kts | 194° |
| 2026-05-04 21:38 | 30.21633 | 31.57993 | 2987 ft | 143 kts | 236° |
| 2026-05-04 21:38 | 30.21070 | 31.57141 | 2999 ft | 134 kts | 239° |
| 2026-05-04 21:39 | 30.20482 | 31.56290 | 2982 ft | 134 kts | 237° |
| 2026-05-04 21:39 | 30.19878 | 31.55464 | 2896 ft | 136 kts | 236° |
| 2026-05-04 21:39 | 30.19255 | 31.54647 | 2692 ft | 133 kts | 236° |
| 2026-05-04 21:39 | 30.18667 | 31.53840 | 2490 ft | 134 kts | 237° |
| 2026-05-04 21:40 | 30.18075 | 31.53010 | 2234 ft | 130 kts | 237° |
| 2026-05-04 21:40 | 30.17494 | 31.52188 | 1980 ft | 132 kts | 237° |
| 2026-05-04 21:40 | 30.16921 | 31.51373 | 1684 ft | 131 kts | 235° |
| 2026-05-04 21:40 | 30.16302 | 31.50581 | 1546 ft | 134 kts | 231° |
| 2026-05-04 21:41 | 30.15657 | 31.49821 | 1429 ft | 132 kts | 231° |
| 2026-05-04 21:41 | 30.15047 | 31.49054 | 1312 ft | 129 kts | 234° |
| 2026-05-04 21:41 | 30.14472 | 31.48240 | 1146 ft | 133 kts | 236° |
| 2026-05-04 21:41 | 30.13907 | 31.47440 | 994 ft | 130 kts | 233° |
| 2026-05-04 21:42 | 30.13305 | 31.46670 | 828 ft | 129 kts | 233° |
| 2026-05-04 21:42 | 30.12706 | 31.45886 | 640 ft | 131 kts | 234° |
| 2026-05-04 21:42 | 30.12106 | 31.45087 | 458 ft | 130 kts | 234° |
| 2026-05-04 21:42 | 30.11530 | 31.44305 | 375 ft | 120 kts | 231° |
| 2026-05-04 21:43 | 30.11083 | 31.43718 | 374 ft | 76 kts | 226° |
| 2026-05-04 21:43 | 30.10936 | 31.43509 | 374 ft | 22 kts | 242° |
| 2026-05-04 21:43 | 30.10868 | 31.43333 | 374 ft | 26 kts | 249° |
| 2026-05-04 21:43 | 30.10816 | 31.43124 | 374 ft | 28 kts | 255° |
| 2026-05-04 21:44 | 30.10755 | 31.42992 | 374 ft | 0 kts | 227° |
| 2026-05-04 21:45 | 30.10747 | 31.42980 | 374 ft | 5 kts | 229° |
| 2026-05-04 21:45 | 30.10711 | 31.42931 | 374 ft | 11 kts | 230° |
| 2026-05-04 21:46 | 30.10650 | 31.42847 | 374 ft | 16 kts | 229° |
| 2026-05-04 21:46 | 30.10566 | 31.42734 | 374 ft | 21 kts | 229° |
| 2026-05-04 21:46 | 30.10496 | 31.42641 | 374 ft | 14 kts | 229° |
| 2026-05-04 21:46 | 30.10424 | 31.42545 | 374 ft | 18 kts | 227° |
| 2026-05-04 21:47 | 30.10336 | 31.42430 | 374 ft | 21 kts | 229° |
| 2026-05-04 21:47 | 30.10237 | 31.42297 | 374 ft | 23 kts | 230° |
| 2026-05-04 21:47 | 30.10137 | 31.42161 | 374 ft | 21 kts | 228° |
| 2026-05-04 21:47 | 30.10036 | 31.42030 | 374 ft | 14 kts | 227° |
| 2026-05-04 21:48 | 30.10023 | 31.42014 | 374 ft | 5 kts | 227° |
| 2026-05-04 21:48 | 30.09990 | 31.41971 | 374 ft | 10 kts | 229° |
| 2026-05-04 21:48 | 30.09937 | 31.41901 | 374 ft | 13 kts | 229° |
| 2026-05-04 21:48 | 30.09886 | 31.41803 | 374 ft | 15 kts | 263° |
| 2026-05-04 21:49 | 30.09918 | 31.41680 | 374 ft | 17 kts | 279° |
| 2026-05-04 21:49 | 30.09903 | 31.41545 | 374 ft | 18 kts | 263° |
| 2026-05-04 21:49 | 30.09879 | 31.41399 | 374 ft | 20 kts | 258° |
| 2026-05-04 21:49 | 30.09852 | 31.41235 | 374 ft | 22 kts | 260° |
| 2026-05-04 21:50 | 30.09831 | 31.41088 | 374 ft | 3 kts | 259° |
| 2026-05-04 21:50 | 30.09824 | 31.41049 | 374 ft | 7 kts | 257° |
| 2026-05-04 21:50 | 30.09812 | 31.40980 | 374 ft | 11 kts | 258° |
| 2026-05-04 21:50 | 30.09795 | 31.40882 | 374 ft | 14 kts | 259° |
| 2026-05-04 21:51 | 30.09795 | 31.40761 | 374 ft | 16 kts | 287° |
| 2026-05-04 21:51 | 30.09874 | 31.40670 | 374 ft | 17 kts | 320° |
| 2026-05-04 21:51 | 30.09974 | 31.40573 | 374 ft | 20 kts | 319° |
| 2026-05-04 21:51 | 30.10084 | 31.40464 | 374 ft | 22 kts | 319° |
| 2026-05-04 21:52 | 30.10201 | 31.40350 | 374 ft | 17 kts | 319° |
| 2026-05-04 21:52 | 30.10281 | 31.40269 | 374 ft | 16 kts | 319° |
| 2026-05-04 21:52 | 30.10361 | 31.40189 | 374 ft | 0 kts | 319° |
| 2026-05-04 21:52 | 30.10370 | 31.40180 | 374 ft | 4 kts | 319° |
| 2026-05-04 21:53 | 30.10399 | 31.40150 | 374 ft | 7 kts | 319° |
| 2026-05-04 21:53 | 30.10409 | 31.40140 | 374 ft | 0 kts | 319° |
| 2026-05-04 21:54 | 30.10417 | 31.40132 | 374 ft | 3 kts | 319° |
| 2026-05-04 21:54 | 30.10418 | 31.40131 | 374 ft | 0 kts | 318° |
| 2026-05-04 21:55 | 30.10423 | 31.40126 | 374 ft | 3 kts | 318° |
| 2026-05-04 21:55 | 30.10437 | 31.40096 | 374 ft | 6 kts | 287° |
| 2026-05-04 21:55 | 30.10428 | 31.40041 | 374 ft | 9 kts | 244° |
| 2026-05-04 21:55 | 30.10384 | 31.39973 | 374 ft | 12 kts | 230° |
| 2026-05-04 21:56 | 30.10338 | 31.39912 | 374 ft | 9 kts | 226° |
| 2026-05-04 21:56 | 30.10287 | 31.39851 | 374 ft | 13 kts | 226° |
| 2026-05-04 21:56 | 30.10228 | 31.39777 | 374 ft | 7 kts | 227° |
| 2026-05-04 21:56 | 30.10188 | 31.39725 | 374 ft | 8 kts | 229° |
| 2026-05-04 21:57 | 30.10179 | 31.39713 | 374 ft | 4 kts | 229° |
| 2026-05-04 21:57 | 30.10149 | 31.39672 | 374 ft | 9 kts | 230° |
| 2026-05-04 21:57 | 30.10136 | 31.39598 | 374 ft | 11 kts | 290° |
| 2026-05-04 21:57 | 30.10199 | 31.39584 | 374 ft | 11 kts | 37° |
| 2026-05-04 21:58 | 30.10259 | 31.39655 | 374 ft | 11 kts | 47° |
| 2026-05-04 21:58 | 30.10307 | 31.39721 | 374 ft | 0 kts | 50° |
| 2026-05-04 21:58 | 30.10315 | 31.39731 | 374 ft | 4 kts | 50° |
| 2026-05-04 21:58 | 30.10358 | 31.39775 | 374 ft | 12 kts | 27° |
| 2026-05-04 21:59 | 30.10459 | 31.39771 | 374 ft | 18 kts | 346° |
| 2026-05-04 21:59 | 30.10561 | 31.39738 | 374 ft | 14 kts | 344° |
| 2026-05-04 21:59 | 30.10650 | 31.39755 | 374 ft | 0 kts | 39° |
| 2026-05-04 21:59 | 30.10663 | 31.39771 | 374 ft | 6 kts | 45° |
| 2026-05-04 22:00 | 30.10711 | 31.39795 | 374 ft | 10 kts | 4° |
| 2026-05-04 22:00 | 30.10776 | 31.39776 | 374 ft | 11 kts | 345° |
| 2026-05-04 22:00 | 30.10830 | 31.39763 | 374 ft | 0 kts | 348° |
| 2026-05-04 22:00 | 30.10847 | 31.39759 | 374 ft | 4 kts | 346° |
| 2026-05-04 22:01 | 30.10877 | 31.39736 | 374 ft | 5 kts | 308° |
| 2026-05-04 22:01 | 30.10881 | 31.39709 | 374 ft | 3 kts | 267° |
| 2026-05-04 22:01 | 30.10879 | 31.39694 | 374 ft | 1 kts | 262° |
| 2026-05-04 22:01 | 30.10878 | 31.39687 | 374 ft | 1 kts | 261° |
| 2026-05-04 22:02 | 30.10876 | 31.39680 | 374 ft | 2 kts | 257° |
| 2026-05-04 22:02 | 30.10868 | 31.39647 | 374 ft | 5 kts | 253° |
| 2026-05-04 22:02 | 30.10867 | 31.39643 | 374 ft | 0 kts | 254° |